sensor_id;sensor_type;location;lat;lon;timestamp;P1;durP1;ratioP1;P2;durP2;ratioP2
10191;SDS011;17580;50.850;4.504;2023-10-19T00:00:20;5.73;;;2.83;;
10191;SDS011;17580;50.850;4.504;2023-10-19T00:02:48;4.07;;;2.77;;
10191;SDS011;17580;50.850;4.504;2023-10-19T00:05:19;4.20;;;2.47;;
10191;SDS011;17580;50.850;4.504;2023-10-19T00:07:46;4.77;;;2.00;;
10191;SDS011;17580;50.850;4.504;2023-10-19T00:10:12;6.00;;;2.37;;
10191;SDS011;17580;50.850;4.504;2023-10-19T00:12:42;3.47;;;2.47;;
10191;SDS011;17580;50.850;4.504;2023-10-19T00:15:09;3.10;;;2.10;;
10191;SDS011;17580;50.850;4.504;2023-10-19T00:17:39;2.70;;;2.50;;
10191;SDS011;17580;50.850;4.504;2023-10-19T00:20:10;2.90;;;2.40;;
10191;SDS011;17580;50.850;4.504;2023-10-19T00:22:52;4.20;;;2.57;;
10191;SDS011;17580;50.850;4.504;2023-10-19T00:25:20;4.60;;;2.77;;
10191;SDS011;17580;50.850;4.504;2023-10-19T00:27:49;2.47;;;2.23;;
10191;SDS011;17580;50.850;4.504;2023-10-19T00:30:17;3.13;;;2.03;;
10191;SDS011;17580;50.850;4.504;2023-10-19T00:32:48;4.30;;;2.37;;
10191;SDS011;17580;50.850;4.504;2023-10-19T00:35:18;3.80;;;2.37;;
10191;SDS011;17580;50.850;4.504;2023-10-19T00:38:00;5.30;;;2.30;;
10191;SDS011;17580;50.850;4.504;2023-10-19T00:40:49;1.80;;;1.60;;
10191;SDS011;17580;50.850;4.504;2023-10-19T00:43:25;3.20;;;1.60;;
10191;SDS011;17580;50.850;4.504;2023-10-19T00:45:53;3.17;;;1.97;;
10191;SDS011;17580;50.850;4.504;2023-10-19T00:48:21;3.27;;;1.57;;
10191;SDS011;17580;50.850;4.504;2023-10-19T00:50:51;4.47;;;1.50;;
10191;SDS011;17580;50.850;4.504;2023-10-19T00:53:33;1.30;;;1.20;;
10191;SDS011;17580;50.850;4.504;2023-10-19T00:56:01;4.90;;;1.40;;
10191;SDS011;17580;50.850;4.504;2023-10-19T00:58:31;1.37;;;1.23;;
10191;SDS011;17580;50.850;4.504;2023-10-19T01:01:01;1.40;;;1.20;;
10191;SDS011;17580;50.850;4.504;2023-10-19T01:03:31;3.07;;;1.33;;
10191;SDS011;17580;50.850;4.504;2023-10-19T01:06:02;4.30;;;1.13;;
10191;SDS011;17580;50.850;4.504;2023-10-19T01:08:36;3.40;;;1.47;;
10191;SDS011;17580;50.850;4.504;2023-10-19T01:11:10;1.47;;;1.00;;
10191;SDS011;17580;50.850;4.504;2023-10-19T01:13:40;2.50;;;1.33;;
10191;SDS011;17580;50.850;4.504;2023-10-19T01:16:11;2.17;;;1.10;;
10191;SDS011;17580;50.850;4.504;2023-10-19T01:18:46;2.30;;;1.03;;
10191;SDS011;17580;50.850;4.504;2023-10-19T01:21:13;2.40;;;1.30;;
10191;SDS011;17580;50.850;4.504;2023-10-19T01:23:46;2.83;;;1.40;;
10191;SDS011;17580;50.850;4.504;2023-10-19T01:26:14;2.37;;;1.20;;
10191;SDS011;17580;50.850;4.504;2023-10-19T01:28:47;2.73;;;1.40;;
10191;SDS011;17580;50.850;4.504;2023-10-19T01:31:17;4.27;;;1.60;;
10191;SDS011;17580;50.850;4.504;2023-10-19T01:33:56;2.27;;;1.40;;
10191;SDS011;17580;50.850;4.504;2023-10-19T01:36:24;1.93;;;0.93;;
10191;SDS011;17580;50.850;4.504;2023-10-19T01:38:52;2.43;;;1.10;;
10191;SDS011;17580;50.850;4.504;2023-10-19T01:41:19;1.13;;;1.00;;
10191;SDS011;17580;50.850;4.504;2023-10-19T01:43:48;2.70;;;1.70;;
10191;SDS011;17580;50.850;4.504;2023-10-19T01:46:16;2.53;;;1.73;;
10191;SDS011;17580;50.850;4.504;2023-10-19T01:48:49;2.40;;;1.17;;
10191;SDS011;17580;50.850;4.504;2023-10-19T01:51:19;5.43;;;1.70;;
10191;SDS011;17580;50.850;4.504;2023-10-19T01:53:47;2.87;;;1.77;;
10191;SDS011;17580;50.850;4.504;2023-10-19T01:56:15;1.63;;;1.20;;
10191;SDS011;17580;50.850;4.504;2023-10-19T01:58:44;4.33;;;1.43;;
10191;SDS011;17580;50.850;4.504;2023-10-19T02:01:13;2.63;;;1.30;;
10191;SDS011;17580;50.850;4.504;2023-10-19T02:03:45;2.50;;;1.50;;
10191;SDS011;17580;50.850;4.504;2023-10-19T02:06:14;3.93;;;1.10;;
10191;SDS011;17580;50.850;4.504;2023-10-19T02:08:45;2.57;;;1.00;;
10191;SDS011;17580;50.850;4.504;2023-10-19T02:11:18;2.87;;;1.37;;
10191;SDS011;17580;50.850;4.504;2023-10-19T02:13:47;3.33;;;1.57;;
10191;SDS011;17580;50.850;4.504;2023-10-19T02:16:14;2.63;;;1.10;;
10191;SDS011;17580;50.850;4.504;2023-10-19T02:18:44;1.40;;;0.90;;
10191;SDS011;17580;50.850;4.504;2023-10-19T02:21:10;6.17;;;1.73;;
10191;SDS011;17580;50.850;4.504;2023-10-19T02:23:38;3.77;;;1.27;;
10191;SDS011;17580;50.850;4.504;2023-10-19T02:26:06;1.67;;;1.30;;
10191;SDS011;17580;50.850;4.504;2023-10-19T02:28:38;2.90;;;1.40;;
10191;SDS011;17580;50.850;4.504;2023-10-19T02:31:04;7.77;;;1.53;;
10191;SDS011;17580;50.850;4.504;2023-10-19T02:33:43;3.10;;;1.10;;
10191;SDS011;17580;50.850;4.504;2023-10-19T02:36:17;5.27;;;1.60;;
10191;SDS011;17580;50.850;4.504;2023-10-19T02:38:45;3.33;;;1.70;;
10191;SDS011;17580;50.850;4.504;2023-10-19T02:41:14;2.83;;;1.13;;
10191;SDS011;17580;50.850;4.504;2023-10-19T02:43:44;4.93;;;1.80;;
10191;SDS011;17580;50.850;4.504;2023-10-19T02:46:16;7.33;;;2.33;;
10191;SDS011;17580;50.850;4.504;2023-10-19T02:48:43;2.47;;;1.60;;
10191;SDS011;17580;50.850;4.504;2023-10-19T02:51:10;4.60;;;1.70;;
10191;SDS011;17580;50.850;4.504;2023-10-19T02:53:38;5.67;;;2.03;;
10191;SDS011;17580;50.850;4.504;2023-10-19T02:56:11;4.37;;;1.53;;
10191;SDS011;17580;50.850;4.504;2023-10-19T02:58:40;4.80;;;1.37;;
10191;SDS011;17580;50.850;4.504;2023-10-19T03:01:18;7.57;;;2.40;;
10191;SDS011;17580;50.850;4.504;2023-10-19T03:03:50;11.83;;;1.97;;
10191;SDS011;17580;50.850;4.504;2023-10-19T03:06:19;5.03;;;1.60;;
10191;SDS011;17580;50.850;4.504;2023-10-19T03:08:46;4.47;;;2.03;;
10191;SDS011;17580;50.850;4.504;2023-10-19T03:11:13;5.40;;;1.23;;
10191;SDS011;17580;50.850;4.504;2023-10-19T03:13:41;6.03;;;1.30;;
10191;SDS011;17580;50.850;4.504;2023-10-19T03:16:08;5.17;;;1.80;;
10191;SDS011;17580;50.850;4.504;2023-10-19T03:18:37;4.57;;;1.50;;
10191;SDS011;17580;50.850;4.504;2023-10-19T03:21:04;4.23;;;1.50;;
10191;SDS011;17580;50.850;4.504;2023-10-19T03:23:31;6.17;;;2.43;;
10191;SDS011;17580;50.850;4.504;2023-10-19T03:25:59;4.73;;;1.90;;
10191;SDS011;17580;50.850;4.504;2023-10-19T03:28:44;3.80;;;1.63;;
10191;SDS011;17580;50.850;4.504;2023-10-19T03:31:13;4.00;;;1.67;;
10191;SDS011;17580;50.850;4.504;2023-10-19T03:33:44;5.87;;;1.83;;
10191;SDS011;17580;50.850;4.504;2023-10-19T03:36:15;3.10;;;1.33;;
10191;SDS011;17580;50.850;4.504;2023-10-19T03:38:42;2.27;;;1.70;;
10191;SDS011;17580;50.850;4.504;2023-10-19T03:41:11;2.60;;;1.23;;
10191;SDS011;17580;50.850;4.504;2023-10-19T03:43:39;4.97;;;1.60;;
10191;SDS011;17580;50.850;4.504;2023-10-19T03:46:06;3.43;;;1.60;;
10191;SDS011;17580;50.850;4.504;2023-10-19T03:48:48;4.27;;;1.43;;
10191;SDS011;17580;50.850;4.504;2023-10-19T03:51:16;7.43;;;1.67;;
10191;SDS011;17580;50.850;4.504;2023-10-19T03:53:43;4.83;;;1.47;;
10191;SDS011;17580;50.850;4.504;2023-10-19T03:56:19;3.00;;;1.70;;
10191;SDS011;17580;50.850;4.504;2023-10-19T03:58:46;5.27;;;1.63;;
10191;SDS011;17580;50.850;4.504;2023-10-19T04:01:16;11.43;;;1.80;;
10191;SDS011;17580;50.850;4.504;2023-10-19T04:03:45;8.03;;;1.47;;
10191;SDS011;17580;50.850;4.504;2023-10-19T04:06:15;2.87;;;1.40;;
10191;SDS011;17580;50.850;4.504;2023-10-19T04:08:45;6.33;;;2.23;;
10191;SDS011;17580;50.850;4.504;2023-10-19T04:11:16;2.20;;;1.27;;
10191;SDS011;17580;50.850;4.504;2023-10-19T04:13:57;10.80;;;2.70;;
10191;SDS011;17580;50.850;4.504;2023-10-19T04:16:28;2.93;;;2.27;;
10191;SDS011;17580;50.850;4.504;2023-10-19T04:18:56;3.53;;;1.50;;
10191;SDS011;17580;50.850;4.504;2023-10-19T04:21:26;2.83;;;1.60;;
10191;SDS011;17580;50.850;4.504;2023-10-19T04:23:53;5.33;;;1.93;;
10191;SDS011;17580;50.850;4.504;2023-10-19T04:26:22;3.77;;;2.07;;
10191;SDS011;17580;50.850;4.504;2023-10-19T04:28:49;3.93;;;1.77;;
10191;SDS011;17580;50.850;4.504;2023-10-19T04:31:17;4.03;;;1.50;;
10191;SDS011;17580;50.850;4.504;2023-10-19T04:33:45;3.17;;;1.20;;
10191;SDS011;17580;50.850;4.504;2023-10-19T04:36:13;4.37;;;1.80;;
10191;SDS011;17580;50.850;4.504;2023-10-19T04:38:41;4.30;;;1.77;;
10191;SDS011;17580;50.850;4.504;2023-10-19T04:41:10;9.27;;;2.87;;
10191;SDS011;17580;50.850;4.504;2023-10-19T04:43:38;5.13;;;2.27;;
10191;SDS011;17580;50.850;4.504;2023-10-19T04:46:06;4.90;;;1.60;;
10191;SDS011;17580;50.850;4.504;2023-10-19T04:48:35;3.23;;;1.50;;
10191;SDS011;17580;50.850;4.504;2023-10-19T04:51:04;9.83;;;2.30;;
10191;SDS011;17580;50.850;4.504;2023-10-19T04:53:32;4.57;;;2.10;;
10191;SDS011;17580;50.850;4.504;2023-10-19T04:56:00;4.23;;;2.37;;
10191;SDS011;17580;50.850;4.504;2023-10-19T04:58:28;11.10;;;2.13;;
10191;SDS011;17580;50.850;4.504;2023-10-19T05:00:56;8.23;;;1.80;;
10191;SDS011;17580;50.850;4.504;2023-10-19T05:03:24;4.63;;;1.87;;
10191;SDS011;17580;50.850;4.504;2023-10-19T05:05:53;5.20;;;1.93;;
10191;SDS011;17580;50.850;4.504;2023-10-19T05:08:20;4.83;;;1.50;;
10191;SDS011;17580;50.850;4.504;2023-10-19T05:10:51;3.80;;;1.50;;
10191;SDS011;17580;50.850;4.504;2023-10-19T05:13:21;2.90;;;1.43;;
10191;SDS011;17580;50.850;4.504;2023-10-19T05:15:48;5.43;;;2.33;;
10191;SDS011;17580;50.850;4.504;2023-10-19T05:18:15;3.57;;;1.83;;
10191;SDS011;17580;50.850;4.504;2023-10-19T05:20:43;6.97;;;2.27;;
10191;SDS011;17580;50.850;4.504;2023-10-19T05:23:11;4.63;;;2.10;;
10191;SDS011;17580;50.850;4.504;2023-10-19T05:25:38;4.27;;;1.57;;
10191;SDS011;17580;50.850;4.504;2023-10-19T05:28:06;7.60;;;2.27;;
10191;SDS011;17580;50.850;4.504;2023-10-19T05:30:36;5.13;;;1.60;;
10191;SDS011;17580;50.850;4.504;2023-10-19T05:33:03;4.47;;;1.60;;
10191;SDS011;17580;50.850;4.504;2023-10-19T05:35:31;4.00;;;1.50;;
10191;SDS011;17580;50.850;4.504;2023-10-19T05:38:00;2.77;;;1.63;;
10191;SDS011;17580;50.850;4.504;2023-10-19T05:40:28;4.17;;;1.37;;
10191;SDS011;17580;50.850;4.504;2023-10-19T05:42:56;4.20;;;2.13;;
10191;SDS011;17580;50.850;4.504;2023-10-19T05:45:25;5.87;;;1.97;;
10191;SDS011;17580;50.850;4.504;2023-10-19T05:47:55;6.73;;;1.80;;
10191;SDS011;17580;50.850;4.504;2023-10-19T05:50:23;3.10;;;1.40;;
10191;SDS011;17580;50.850;4.504;2023-10-19T05:52:50;4.50;;;1.80;;
10191;SDS011;17580;50.850;4.504;2023-10-19T05:55:18;5.40;;;2.10;;
10191;SDS011;17580;50.850;4.504;2023-10-19T05:57:47;4.17;;;1.47;;
10191;SDS011;17580;50.850;4.504;2023-10-19T06:00:14;5.03;;;1.60;;
10191;SDS011;17580;50.850;4.504;2023-10-19T06:02:43;4.87;;;2.10;;
10191;SDS011;17580;50.850;4.504;2023-10-19T06:05:12;5.37;;;1.53;;
10191;SDS011;17580;50.850;4.504;2023-10-19T06:07:40;4.23;;;1.70;;
10191;SDS011;17580;50.850;4.504;2023-10-19T06:10:08;5.77;;;1.67;;
10191;SDS011;17580;50.850;4.504;2023-10-19T06:12:41;5.53;;;1.87;;
10191;SDS011;17580;50.850;4.504;2023-10-19T06:15:08;7.90;;;2.00;;
10191;SDS011;17580;50.850;4.504;2023-10-19T06:17:37;7.10;;;2.53;;
10191;SDS011;17580;50.850;4.504;2023-10-19T06:20:05;11.10;;;2.57;;
10191;SDS011;17580;50.850;4.504;2023-10-19T06:22:35;4.47;;;1.50;;
10191;SDS011;17580;50.850;4.504;2023-10-19T06:25:02;9.33;;;1.70;;
10191;SDS011;17580;50.850;4.504;2023-10-19T06:27:31;5.60;;;1.80;;
10191;SDS011;17580;50.850;4.504;2023-10-19T06:29:58;4.43;;;1.80;;
10191;SDS011;17580;50.850;4.504;2023-10-19T06:32:26;4.37;;;1.67;;
10191;SDS011;17580;50.850;4.504;2023-10-19T06:34:53;5.17;;;2.07;;
10191;SDS011;17580;50.850;4.504;2023-10-19T06:37:20;3.87;;;1.77;;
10191;SDS011;17580;50.850;4.504;2023-10-19T06:39:49;3.70;;;1.80;;
10191;SDS011;17580;50.850;4.504;2023-10-19T06:42:16;8.07;;;1.90;;
10191;SDS011;17580;50.850;4.504;2023-10-19T06:44:44;7.57;;;1.80;;
10191;SDS011;17580;50.850;4.504;2023-10-19T06:47:11;5.93;;;1.80;;
10191;SDS011;17580;50.850;4.504;2023-10-19T06:49:39;5.70;;;2.17;;
10191;SDS011;17580;50.850;4.504;2023-10-19T06:52:06;4.67;;;2.60;;
10191;SDS011;17580;50.850;4.504;2023-10-19T06:54:37;5.03;;;1.73;;
10191;SDS011;17580;50.850;4.504;2023-10-19T06:57:06;3.20;;;1.53;;
10191;SDS011;17580;50.850;4.504;2023-10-19T06:59:34;5.37;;;1.57;;
10191;SDS011;17580;50.850;4.504;2023-10-19T07:02:01;6.13;;;2.10;;
10191;SDS011;17580;50.850;4.504;2023-10-19T07:04:29;4.77;;;1.70;;
10191;SDS011;17580;50.850;4.504;2023-10-19T07:06:56;4.17;;;1.70;;
10191;SDS011;17580;50.850;4.504;2023-10-19T07:09:23;6.83;;;1.90;;
10191;SDS011;17580;50.850;4.504;2023-10-19T07:11:51;7.10;;;2.20;;
10191;SDS011;17580;50.850;4.504;2023-10-19T07:14:21;4.77;;;1.70;;
10191;SDS011;17580;50.850;4.504;2023-10-19T07:16:49;8.60;;;2.73;;
10191;SDS011;17580;50.850;4.504;2023-10-19T07:19:17;5.60;;;2.03;;
10191;SDS011;17580;50.850;4.504;2023-10-19T07:21:45;10.20;;;2.27;;
10191;SDS011;17580;50.850;4.504;2023-10-19T07:24:18;8.27;;;1.83;;
10191;SDS011;17580;50.850;4.504;2023-10-19T07:26:49;9.10;;;2.63;;
10191;SDS011;17580;50.850;4.504;2023-10-19T07:29:31;8.03;;;2.97;;
10191;SDS011;17580;50.850;4.504;2023-10-19T07:31:58;5.10;;;2.50;;
10191;SDS011;17580;50.850;4.504;2023-10-19T07:34:26;9.80;;;2.50;;
10191;SDS011;17580;50.850;4.504;2023-10-19T07:36:54;10.13;;;2.33;;
10191;SDS011;17580;50.850;4.504;2023-10-19T07:39:24;6.27;;;2.13;;
10191;SDS011;17580;50.850;4.504;2023-10-19T07:41:54;13.20;;;2.43;;
10191;SDS011;17580;50.850;4.504;2023-10-19T07:44:21;6.67;;;2.03;;
10191;SDS011;17580;50.850;4.504;2023-10-19T07:46:50;10.97;;;3.07;;
10191;SDS011;17580;50.850;4.504;2023-10-19T07:49:17;3.90;;;1.87;;
10191;SDS011;17580;50.850;4.504;2023-10-19T07:51:47;5.23;;;2.13;;
10191;SDS011;17580;50.850;4.504;2023-10-19T07:54:15;14.83;;;3.57;;
10191;SDS011;17580;50.850;4.504;2023-10-19T07:56:42;8.43;;;2.77;;
10191;SDS011;17580;50.850;4.504;2023-10-19T07:59:09;7.10;;;2.00;;
10191;SDS011;17580;50.850;4.504;2023-10-19T08:01:37;9.77;;;3.03;;
10191;SDS011;17580;50.850;4.504;2023-10-19T08:04:06;12.23;;;3.17;;
10191;SDS011;17580;50.850;4.504;2023-10-19T08:06:33;8.13;;;3.00;;
10191;SDS011;17580;50.850;4.504;2023-10-19T08:09:00;5.10;;;1.67;;
10191;SDS011;17580;50.850;4.504;2023-10-19T08:11:30;4.03;;;1.87;;
10191;SDS011;17580;50.850;4.504;2023-10-19T08:13:59;9.57;;;2.40;;
10191;SDS011;17580;50.850;4.504;2023-10-19T08:16:26;7.53;;;3.13;;
10191;SDS011;17580;50.850;4.504;2023-10-19T08:18:53;7.13;;;2.20;;
10191;SDS011;17580;50.850;4.504;2023-10-19T08:21:22;5.93;;;2.37;;
10191;SDS011;17580;50.850;4.504;2023-10-19T08:23:50;7.77;;;3.07;;
10191;SDS011;17580;50.850;4.504;2023-10-19T08:26:18;5.77;;;2.13;;
10191;SDS011;17580;50.850;4.504;2023-10-19T08:28:46;10.10;;;2.73;;
10191;SDS011;17580;50.850;4.504;2023-10-19T08:31:14;6.17;;;2.40;;
10191;SDS011;17580;50.850;4.504;2023-10-19T08:33:42;8.00;;;2.83;;
10191;SDS011;17580;50.850;4.504;2023-10-19T08:36:18;10.53;;;3.20;;
10191;SDS011;17580;50.850;4.504;2023-10-19T08:38:47;5.23;;;1.93;;
10191;SDS011;17580;50.850;4.504;2023-10-19T08:41:14;6.93;;;2.47;;
10191;SDS011;17580;50.850;4.504;2023-10-19T08:43:42;4.73;;;1.90;;
10191;SDS011;17580;50.850;4.504;2023-10-19T08:46:09;8.43;;;2.57;;
10191;SDS011;17580;50.850;4.504;2023-10-19T08:48:37;8.33;;;2.07;;
10191;SDS011;17580;50.850;4.504;2023-10-19T08:51:09;7.93;;;2.37;;
10191;SDS011;17580;50.850;4.504;2023-10-19T08:53:36;5.63;;;2.47;;
10191;SDS011;17580;50.850;4.504;2023-10-19T08:56:08;9.17;;;2.43;;
10191;SDS011;17580;50.850;4.504;2023-10-19T08:58:37;8.47;;;2.30;;
10191;SDS011;17580;50.850;4.504;2023-10-19T09:01:04;14.17;;;2.90;;
10191;SDS011;17580;50.850;4.504;2023-10-19T09:03:35;7.60;;;2.90;;
10191;SDS011;17580;50.850;4.504;2023-10-19T09:06:04;12.10;;;2.93;;
10191;SDS011;17580;50.850;4.504;2023-10-19T09:08:31;9.83;;;2.57;;
10191;SDS011;17580;50.850;4.504;2023-10-19T09:11:06;9.40;;;2.77;;
10191;SDS011;17580;50.850;4.504;2023-10-19T09:13:43;9.53;;;3.00;;
10191;SDS011;17580;50.850;4.504;2023-10-19T09:16:12;9.87;;;2.50;;
10191;SDS011;17580;50.850;4.504;2023-10-19T09:18:39;16.60;;;3.57;;
10191;SDS011;17580;50.850;4.504;2023-10-19T09:21:07;12.90;;;3.10;;
10191;SDS011;17580;50.850;4.504;2023-10-19T09:23:36;9.40;;;3.23;;
10191;SDS011;17580;50.850;4.504;2023-10-19T09:26:04;7.20;;;2.20;;
10191;SDS011;17580;50.850;4.504;2023-10-19T09:28:45;9.10;;;2.53;;
10191;SDS011;17580;50.850;4.504;2023-10-19T09:31:13;6.37;;;2.53;;
10191;SDS011;17580;50.850;4.504;2023-10-19T09:33:42;5.73;;;2.37;;
10191;SDS011;17580;50.850;4.504;2023-10-19T09:36:09;7.97;;;2.33;;
10191;SDS011;17580;50.850;4.504;2023-10-19T09:38:39;6.00;;;2.07;;
10191;SDS011;17580;50.850;4.504;2023-10-19T09:41:08;7.80;;;2.23;;
10191;SDS011;17580;50.850;4.504;2023-10-19T09:43:43;5.50;;;2.10;;
10191;SDS011;17580;50.850;4.504;2023-10-19T09:46:11;10.13;;;3.10;;
10191;SDS011;17580;50.850;4.504;2023-10-19T09:48:39;8.47;;;2.50;;
10191;SDS011;17580;50.850;4.504;2023-10-19T09:51:08;12.33;;;2.67;;
10191;SDS011;17580;50.850;4.504;2023-10-19T09:53:36;10.07;;;2.70;;
10191;SDS011;17580;50.850;4.504;2023-10-19T09:56:05;9.87;;;2.50;;
10191;SDS011;17580;50.850;4.504;2023-10-19T09:58:33;11.03;;;3.50;;
10191;SDS011;17580;50.850;4.504;2023-10-19T10:01:04;9.27;;;2.67;;
10191;SDS011;17580;50.850;4.504;2023-10-19T10:03:44;5.67;;;2.27;;
10191;SDS011;17580;50.850;4.504;2023-10-19T10:06:11;10.17;;;2.60;;
10191;SDS011;17580;50.850;4.504;2023-10-19T10:08:40;4.43;;;2.33;;
10191;SDS011;17580;50.850;4.504;2023-10-19T10:13:55;10.17;;;2.70;;
10191;SDS011;17580;50.850;4.504;2023-10-19T10:16:25;9.07;;;2.27;;
10191;SDS011;17580;50.850;4.504;2023-10-19T10:18:56;3.27;;;2.00;;
10191;SDS011;17580;50.850;4.504;2023-10-19T10:21:24;8.43;;;2.70;;
10191;SDS011;17580;50.850;4.504;2023-10-19T10:23:52;7.47;;;2.33;;
10191;SDS011;17580;50.850;4.504;2023-10-19T10:26:20;10.40;;;3.20;;
10191;SDS011;17580;50.850;4.504;2023-10-19T10:29:08;4.03;;;2.10;;
10191;SDS011;17580;50.850;4.504;2023-10-19T10:31:42;6.80;;;2.33;;
10191;SDS011;17580;50.850;4.504;2023-10-19T10:34:09;5.63;;;2.30;;
10191;SDS011;17580;50.850;4.504;2023-10-19T10:39:23;6.13;;;2.07;;
10191;SDS011;17580;50.850;4.504;2023-10-19T10:41:55;7.80;;;2.50;;
10191;SDS011;17580;50.850;4.504;2023-10-19T10:44:34;8.67;;;2.23;;
10191;SDS011;17580;50.850;4.504;2023-10-19T10:47:04;5.80;;;2.53;;
10191;SDS011;17580;50.850;4.504;2023-10-19T10:49:33;7.40;;;2.57;;
10191;SDS011;17580;50.850;4.504;2023-10-19T10:52:00;7.13;;;2.23;;
10191;SDS011;17580;50.850;4.504;2023-10-19T10:54:27;6.80;;;2.43;;
10191;SDS011;17580;50.850;4.504;2023-10-19T10:56:55;6.57;;;2.67;;
10191;SDS011;17580;50.850;4.504;2023-10-19T10:59:22;11.13;;;2.73;;
10191;SDS011;17580;50.850;4.504;2023-10-19T11:01:51;8.93;;;3.07;;
10191;SDS011;17580;50.850;4.504;2023-10-19T11:04:19;5.57;;;2.23;;
10191;SDS011;17580;50.850;4.504;2023-10-19T11:06:47;6.20;;;2.53;;
10191;SDS011;17580;50.850;4.504;2023-10-19T11:09:15;6.63;;;2.53;;
10191;SDS011;17580;50.850;4.504;2023-10-19T11:11:44;12.97;;;2.87;;
10191;SDS011;17580;50.850;4.504;2023-10-19T11:14:11;5.17;;;2.23;;
10191;SDS011;17580;50.850;4.504;2023-10-19T11:16:38;6.63;;;2.10;;
10191;SDS011;17580;50.850;4.504;2023-10-19T11:19:06;8.00;;;2.27;;
10191;SDS011;17580;50.850;4.504;2023-10-19T11:21:36;3.57;;;1.60;;
10191;SDS011;17580;50.850;4.504;2023-10-19T11:24:03;3.23;;;1.93;;
10191;SDS011;17580;50.850;4.504;2023-10-19T11:26:37;5.27;;;1.70;;
10191;SDS011;17580;50.850;4.504;2023-10-19T11:29:06;6.67;;;2.27;;
10191;SDS011;17580;50.850;4.504;2023-10-19T11:31:35;8.97;;;2.47;;
10191;SDS011;17580;50.850;4.504;2023-10-19T11:34:04;6.30;;;2.37;;
10191;SDS011;17580;50.850;4.504;2023-10-19T11:36:33;6.17;;;2.63;;
10191;SDS011;17580;50.850;4.504;2023-10-19T11:39:02;3.80;;;2.20;;
10191;SDS011;17580;50.850;4.504;2023-10-19T11:41:33;6.17;;;2.03;;
10191;SDS011;17580;50.850;4.504;2023-10-19T11:44:00;9.43;;;3.20;;
10191;SDS011;17580;50.850;4.504;2023-10-19T11:46:28;4.97;;;2.20;;
10191;SDS011;17580;50.850;4.504;2023-10-19T11:48:55;3.77;;;1.73;;
10191;SDS011;17580;50.850;4.504;2023-10-19T11:51:22;9.03;;;2.10;;
10191;SDS011;17580;50.850;4.504;2023-10-19T11:53:49;7.23;;;2.33;;
10191;SDS011;17580;50.850;4.504;2023-10-19T11:56:18;4.00;;;2.03;;
10191;SDS011;17580;50.850;4.504;2023-10-19T11:58:46;3.40;;;2.40;;
10191;SDS011;17580;50.850;4.504;2023-10-19T12:01:13;6.37;;;2.00;;
10191;SDS011;17580;50.850;4.504;2023-10-19T12:03:42;4.73;;;2.10;;
10191;SDS011;17580;50.850;4.504;2023-10-19T12:06:11;5.67;;;1.73;;
10191;SDS011;17580;50.850;4.504;2023-10-19T12:08:43;6.27;;;2.00;;
10191;SDS011;17580;50.850;4.504;2023-10-19T12:11:11;3.87;;;2.10;;
10191;SDS011;17580;50.850;4.504;2023-10-19T12:13:43;4.00;;;1.80;;
10191;SDS011;17580;50.850;4.504;2023-10-19T12:16:10;4.37;;;1.80;;
10191;SDS011;17580;50.850;4.504;2023-10-19T12:18:40;5.03;;;1.90;;
10191;SDS011;17580;50.850;4.504;2023-10-19T12:21:08;5.07;;;2.10;;
10191;SDS011;17580;50.850;4.504;2023-10-19T12:23:38;5.70;;;2.13;;
10191;SDS011;17580;50.850;4.504;2023-10-19T12:26:06;5.03;;;1.70;;
10191;SDS011;17580;50.850;4.504;2023-10-19T12:28:36;4.37;;;1.70;;
10191;SDS011;17580;50.850;4.504;2023-10-19T12:31:06;4.70;;;2.20;;
10191;SDS011;17580;50.850;4.504;2023-10-19T12:33:34;3.97;;;2.00;;
10191;SDS011;17580;50.850;4.504;2023-10-19T12:36:01;1.83;;;1.30;;
10191;SDS011;17580;50.850;4.504;2023-10-19T12:38:47;1.73;;;1.10;;
10191;SDS011;17580;50.850;4.504;2023-10-19T12:41:14;1.50;;;1.40;;
10191;SDS011;17580;50.850;4.504;2023-10-19T12:43:44;3.20;;;1.07;;
10191;SDS011;17580;50.850;4.504;2023-10-19T12:46:13;2.43;;;1.23;;
10191;SDS011;17580;50.850;4.504;2023-10-19T12:48:41;3.00;;;1.47;;
10191;SDS011;17580;50.850;4.504;2023-10-19T12:51:08;3.13;;;1.30;;
10191;SDS011;17580;50.850;4.504;2023-10-19T12:53:36;1.40;;;0.80;;
10191;SDS011;17580;50.850;4.504;2023-10-19T12:56:04;2.30;;;1.47;;
10191;SDS011;17580;50.850;4.504;2023-10-19T12:58:32;2.67;;;1.20;;
10191;SDS011;17580;50.850;4.504;2023-10-19T13:01:00;2.23;;;0.90;;
10191;SDS011;17580;50.850;4.504;2023-10-19T13:03:31;1.30;;;1.13;;
10191;SDS011;17580;50.850;4.504;2023-10-19T13:06:01;1.30;;;1.10;;
10191;SDS011;17580;50.850;4.504;2023-10-19T13:08:32;0.90;;;0.90;;
10191;SDS011;17580;50.850;4.504;2023-10-19T13:10:59;1.30;;;1.20;;
10191;SDS011;17580;50.850;4.504;2023-10-19T13:13:27;2.73;;;1.10;;
10191;SDS011;17580;50.850;4.504;2023-10-19T13:15:54;0.87;;;0.87;;
10191;SDS011;17580;50.850;4.504;2023-10-19T13:18:21;1.10;;;1.10;;
10191;SDS011;17580;50.850;4.504;2023-10-19T13:20:54;1.63;;;1.23;;
10191;SDS011;17580;50.850;4.504;2023-10-19T13:23:22;2.00;;;1.53;;
10191;SDS011;17580;50.850;4.504;2023-10-19T13:25:49;3.00;;;1.60;;
10191;SDS011;17580;50.850;4.504;2023-10-19T13:28:19;2.30;;;1.37;;
10191;SDS011;17580;50.850;4.504;2023-10-19T13:30:47;2.13;;;1.37;;
10191;SDS011;17580;50.850;4.504;2023-10-19T13:33:15;1.40;;;1.30;;
10191;SDS011;17580;50.850;4.504;2023-10-19T13:35:43;1.80;;;1.17;;
10191;SDS011;17580;50.850;4.504;2023-10-19T13:38:11;1.20;;;1.20;;
10191;SDS011;17580;50.850;4.504;2023-10-19T13:40:40;1.10;;;1.00;;
10191;SDS011;17580;50.850;4.504;2023-10-19T13:43:08;1.37;;;1.20;;
10191;SDS011;17580;50.850;4.504;2023-10-19T13:45:39;1.00;;;0.90;;
10191;SDS011;17580;50.850;4.504;2023-10-19T13:48:07;4.43;;;1.77;;
10191;SDS011;17580;50.850;4.504;2023-10-19T13:50:40;2.97;;;1.20;;
10191;SDS011;17580;50.850;4.504;2023-10-19T13:53:07;8.40;;;1.57;;
10191;SDS011;17580;50.850;4.504;2023-10-19T13:55:36;2.33;;;1.50;;
10191;SDS011;17580;50.850;4.504;2023-10-19T13:58:03;2.03;;;1.30;;
10191;SDS011;17580;50.850;4.504;2023-10-19T14:00:31;4.73;;;1.70;;
10191;SDS011;17580;50.850;4.504;2023-10-19T14:03:05;2.07;;;1.30;;
10191;SDS011;17580;50.850;4.504;2023-10-19T14:05:35;1.83;;;0.90;;
10191;SDS011;17580;50.850;4.504;2023-10-19T14:08:03;1.10;;;1.10;;
10191;SDS011;17580;50.850;4.504;2023-10-19T14:10:30;1.90;;;1.10;;
10191;SDS011;17580;50.850;4.504;2023-10-19T14:12:59;1.20;;;1.10;;
10191;SDS011;17580;50.850;4.504;2023-10-19T14:15:26;1.10;;;1.10;;
10191;SDS011;17580;50.850;4.504;2023-10-19T14:17:55;1.20;;;0.90;;
10191;SDS011;17580;50.850;4.504;2023-10-19T14:20:23;1.40;;;1.30;;
10191;SDS011;17580;50.850;4.504;2023-10-19T14:22:51;1.63;;;1.17;;
10191;SDS011;17580;50.850;4.504;2023-10-19T14:25:20;2.33;;;0.93;;
10191;SDS011;17580;50.850;4.504;2023-10-19T14:27:48;1.17;;;1.07;;
10191;SDS011;17580;50.850;4.504;2023-10-19T14:30:17;1.87;;;0.90;;
10191;SDS011;17580;50.850;4.504;2023-10-19T14:32:46;0.80;;;0.80;;
10191;SDS011;17580;50.850;4.504;2023-10-19T14:35:14;1.20;;;1.10;;
10191;SDS011;17580;50.850;4.504;2023-10-19T14:37:42;2.47;;;1.50;;
10191;SDS011;17580;50.850;4.504;2023-10-19T14:40:10;4.57;;;1.17;;
10191;SDS011;17580;50.850;4.504;2023-10-19T14:42:37;1.90;;;1.20;;
10191;SDS011;17580;50.850;4.504;2023-10-19T14:45:06;1.10;;;1.00;;
10191;SDS011;17580;50.850;4.504;2023-10-19T14:47:36;0.83;;;0.80;;
10191;SDS011;17580;50.850;4.504;2023-10-19T14:50:06;2.00;;;1.00;;
10191;SDS011;17580;50.850;4.504;2023-10-19T14:52:34;1.17;;;1.07;;
10191;SDS011;17580;50.850;4.504;2023-10-19T14:55:01;0.87;;;0.87;;
10191;SDS011;17580;50.850;4.504;2023-10-19T14:57:31;1.17;;;1.03;;
10191;SDS011;17580;50.850;4.504;2023-10-19T14:59:58;2.03;;;1.00;;
10191;SDS011;17580;50.850;4.504;2023-10-19T15:02:32;1.23;;;1.13;;